Winterport, Maine
Current Conditions -  °F | °C
As of 1:00 AM on Wednesday 28 Jan 2015 (Local Time) from KBGR Reporting Station
Light Snow Light Snow  
Wind Chill: -22°   Ceiling: 2600
Heat Index: -11°   Visibility: 1.2mi
Dew Point: -14°   Wind: 26mph
Humidity: 80%   Direction: 10°N
Pressure: 29.62"   Gusts: 33mph
Location:  44.65°N, 68.86°W
Report Text: KBGR 280600Z 01023G29KT 1 1/4SM -SN BLSN BR BKN026 OVC036 M11/M14 A2962 RMK AO2 PK WND 36029/0559 P0000 T11111139
Loading
Personal Weather Stations






























Interactive Weather Map New forecast layout! Learn more

10-Day Weather Forecast

Advertisements
Track Severe Weather on mobile